sensor_id;sensor_type;location;lat;lon;timestamp;pressure;altitude;pressure_sealevel;temperature;humidity
62680;BME280;68213;40.528;44.712;2023-05-21T00:00:27;80243.94;;;6.61;88.21
62680;BME280;68213;40.528;44.712;2023-05-21T00:01:28;80247.69;;;6.58;87.72
62680;BME280;68213;40.528;44.712;2023-05-21T00:02:29;80240.75;;;6.63;88.18
62680;BME280;68213;40.528;44.712;2023-05-21T00:03:29;80240.22;;;6.64;88.20
62680;BME280;68213;40.528;44.712;2023-05-21T00:04:30;80233.75;;;6.65;87.76
62680;BME280;68213;40.528;44.712;2023-05-21T00:05:34;80235.78;;;6.67;87.65
62680;BME280;68213;40.528;44.712;2023-05-21T00:06:36;80229.88;;;6.66;87.63
62680;BME280;68213;40.528;44.712;2023-05-21T00:07:37;80226.72;;;6.68;87.54
62680;BME280;68213;40.528;44.712;2023-05-21T00:08:38;80234.69;;;6.70;87.26
62680;BME280;68213;40.528;44.712;2023-05-21T00:09:39;80232.19;;;6.72;86.98
62680;BME280;68213;40.528;44.712;2023-05-21T00:10:40;80238.78;;;6.73;86.76
62680;BME280;68213;40.528;44.712;2023-05-21T00:11:40;80230.38;;;6.75;86.82
62680;BME280;68213;40.528;44.712;2023-05-21T00:12:41;80238.19;;;6.75;86.76
62680;BME280;68213;40.528;44.712;2023-05-21T00:13:42;80233.09;;;6.77;86.56
62680;BME280;68213;40.528;44.712;2023-05-21T00:14:42;80230.50;;;6.77;86.35
62680;BME280;68213;40.528;44.712;2023-05-21T00:15:43;80228.56;;;6.77;86.62
62680;BME280;68213;40.528;44.712;2023-05-21T00:16:44;80231.28;;;6.79;86.28
62680;BME280;68213;40.528;44.712;2023-05-21T00:17:46;80227.44;;;6.80;86.08
62680;BME280;68213;40.528;44.712;2023-05-21T00:18:47;80227.44;;;6.80;86.13
62680;BME280;68213;40.528;44.712;2023-05-21T00:19:49;80234.72;;;6.82;85.91
62680;BME280;68213;40.528;44.712;2023-05-21T00:20:50;80227.44;;;6.80;85.96
62680;BME280;68213;40.528;44.712;2023-05-21T00:21:50;80236.53;;;6.79;85.76
62680;BME280;68213;40.528;44.712;2023-05-21T00:22:51;80236.53;;;6.79;85.55
62680;BME280;68213;40.528;44.712;2023-05-21T00:23:52;80230.63;;;6.79;85.24
62680;BME280;68213;40.528;44.712;2023-05-21T00:24:56;80227.66;;;6.73;85.15
62680;BME280;68213;40.528;44.712;2023-05-21T00:25:57;80235.50;;;6.73;85.04
62680;BME280;68213;40.528;44.712;2023-05-21T00:26:57;80239.28;;;6.60;84.87
62680;BME280;68213;40.528;44.712;2023-05-21T00:27:58;80240.53;;;6.59;85.45
62680;BME280;68213;40.528;44.712;2023-05-21T00:28:58;80238.47;;;6.57;85.95
62680;BME280;68213;40.528;44.712;2023-05-21T00:30:00;80247.44;;;6.54;86.06
62680;BME280;68213;40.528;44.712;2023-05-21T00:31:00;80242.06;;;6.52;86.22
62680;BME280;68213;40.528;44.712;2023-05-21T00:32:01;80236.84;;;6.52;86.61
62680;BME280;68213;40.528;44.712;2023-05-21T00:33:02;80214.88;;;6.33;86.86
62680;BME280;68213;40.528;44.712;2023-05-21T00:34:03;80237.56;;;6.53;87.03
62680;BME280;68213;40.528;44.712;2023-05-21T00:35:04;80238.22;;;6.53;87.21
62680;BME280;68213;40.528;44.712;2023-05-21T00:36:05;80222.69;;;6.33;87.01
62680;BME280;68213;40.528;44.712;2023-05-21T00:37:06;80245.69;;;6.47;87.21
62680;BME280;68213;40.528;44.712;2023-05-21T00:38:09;80240.47;;;6.47;87.01
62680;BME280;68213;40.528;44.712;2023-05-21T00:39:12;80239.22;;;6.48;87.11
62680;BME280;68213;40.528;44.712;2023-05-21T00:40:13;80245.13;;;6.48;87.19
62680;BME280;68213;40.528;44.712;2023-05-21T00:41:14;80236.63;;;6.48;87.18
62680;BME280;68213;40.528;44.712;2023-05-21T00:42:16;80234.69;;;6.48;87.58
62680;BME280;68213;40.528;44.712;2023-05-21T00:43:17;80237.28;;;6.48;87.73
62680;BME280;68213;40.528;44.712;2023-05-21T00:44:18;80180.69;;;6.08;87.75
62680;BME280;68213;40.528;44.712;2023-05-21T00:45:19;80248.44;;;6.49;88.12
62680;BME280;68213;40.528;44.712;2023-05-21T00:46:21;80234.56;;;6.46;88.22
62680;BME280;68213;40.528;44.712;2023-05-21T00:47:22;80216.31;;;6.25;88.59
62680;BME280;68213;40.528;44.712;2023-05-21T00:48:23;80228.84;;;6.38;88.28
62680;BME280;68213;40.528;44.712;2023-05-21T00:49:23;80233.63;;;6.42;88.38
62680;BME280;68213;40.528;44.712;2023-05-21T00:50:25;80227.72;;;6.41;88.53
62680;BME280;68213;40.528;44.712;2023-05-21T00:51:25;80228.28;;;6.40;87.63
62680;BME280;68213;40.528;44.712;2023-05-21T00:52:29;80235.88;;;6.35;87.56
62680;BME280;68213;40.528;44.712;2023-05-21T00:53:30;80225.31;;;6.33;87.76
62680;BME280;68213;40.528;44.712;2023-05-21T00:54:34;80230.28;;;6.29;88.47
62680;BME280;68213;40.528;44.712;2023-05-21T00:55:38;80224.25;;;6.27;88.10
62680;BME280;68213;40.528;44.712;2023-05-21T00:56:40;80222.19;;;6.25;87.68
62680;BME280;68213;40.528;44.712;2023-05-21T00:57:41;80218.47;;;6.28;87.66
62680;BME280;68213;40.528;44.712;2023-05-21T00:58:42;80223.13;;;6.30;87.27
62680;BME280;68213;40.528;44.712;2023-05-21T00:59:43;80211.75;;;6.25;87.06
62680;BME280;68213;40.528;44.712;2023-05-21T01:00:44;80222.81;;;6.35;86.86
62680;BME280;68213;40.528;44.712;2023-05-21T01:01:45;80210.22;;;6.32;87.04
62680;BME280;68213;40.528;44.712;2023-05-21T01:02:46;80224.31;;;6.39;86.94
62680;BME280;68213;40.528;44.712;2023-05-21T01:03:49;80198.34;;;6.19;86.90
62680;BME280;68213;40.528;44.712;2023-05-21T01:04:53;80221.16;;;6.40;87.17
62680;BME280;68213;40.528;44.712;2023-05-21T01:05:54;80225.81;;;6.42;87.19
62680;BME280;68213;40.528;44.712;2023-05-21T01:06:59;80225.25;;;6.43;87.08
62680;BME280;68213;40.528;44.712;2023-05-21T01:08:00;80222.06;;;6.45;87.34
62680;BME280;68213;40.528;44.712;2023-05-21T01:09:01;80219.56;;;6.47;87.42
62680;BME280;68213;40.528;44.712;2023-05-21T01:10:05;80219.72;;;6.49;87.41
62680;BME280;68213;40.528;44.712;2023-05-21T01:11:08;80220.94;;;6.48;86.96
62680;BME280;68213;40.528;44.712;2023-05-21T01:12:10;80213.91;;;6.50;87.62
62680;BME280;68213;40.528;44.712;2023-05-21T01:13:13;80205.97;;;6.48;87.55
62680;BME280;68213;40.528;44.712;2023-05-21T01:14:17;80214.84;;;6.55;86.95
62680;BME280;68213;40.528;44.712;2023-05-21T01:15:18;80208.56;;;6.48;86.33
62680;BME280;68213;40.528;44.712;2023-05-21T01:16:18;80217.59;;;6.57;86.13
62680;BME280;68213;40.528;44.712;2023-05-21T01:17:22;80223.50;;;6.58;86.10
62680;BME280;68213;40.528;44.712;2023-05-21T01:18:23;80222.13;;;6.57;85.97
62680;BME280;68213;40.528;44.712;2023-05-21T01:19:25;80222.81;;;6.57;85.71
62680;BME280;68213;40.528;44.712;2023-05-21T01:20:27;80216.34;;;6.58;84.78
62680;BME280;68213;40.528;44.712;2023-05-21T01:21:29;80220.31;;;6.59;84.37
62680;BME280;68213;40.528;44.712;2023-05-21T01:22:35;80225.53;;;6.59;83.81
62680;BME280;68213;40.528;44.712;2023-05-21T01:23:36;80223.50;;;6.58;83.81
62680;BME280;68213;40.528;44.712;2023-05-21T01:24:36;80217.59;;;6.57;83.38
62680;BME280;68213;40.528;44.712;2023-05-21T01:25:37;80217.59;;;6.57;83.13
62680;BME280;68213;40.528;44.712;2023-05-21T01:26:40;80200.81;;;6.39;82.85
62680;BME280;68213;40.528;44.712;2023-05-21T01:27:43;80220.88;;;6.58;82.79
62680;BME280;68213;40.528;44.712;2023-05-21T01:28:43;80223.50;;;6.58;82.64
62680;BME280;68213;40.528;44.712;2023-05-21T01:29:44;80220.06;;;6.55;82.56
62680;BME280;68213;40.528;44.712;2023-05-21T01:32:06;80222.81;;;6.57;82.05
62680;BME280;68213;40.528;44.712;2023-05-21T01:34:13;80223.78;;;6.52;81.97
62680;BME280;68213;40.528;44.712;2023-05-21T01:35:26;80221.88;;;6.53;81.79
62680;BME280;68213;40.528;44.712;2023-05-21T01:36:33;80223.78;;;6.52;81.78
62680;BME280;68213;40.528;44.712;2023-05-21T01:37:50;80223.94;;;6.54;82.14
62680;BME280;68213;40.528;44.712;2023-05-21T01:39:06;80225.16;;;6.53;81.90
62680;BME280;68213;40.528;44.712;2023-05-21T01:41:32;80226.84;;;6.48;81.70
62680;BME280;68213;40.528;44.712;2023-05-21T01:42:35;80230.16;;;6.49;81.89
62680;BME280;68213;40.528;44.712;2023-05-21T01:43:41;80220.72;;;6.44;82.06
62680;BME280;68213;40.528;44.712;2023-05-21T01:44:43;80226.16;;;6.48;82.22
62680;BME280;68213;40.528;44.712;2023-05-21T01:45:46;80222.19;;;6.47;82.34
62680;BME280;68213;40.528;44.712;2023-05-21T01:46:47;80226.63;;;6.44;82.46
62680;BME280;68213;40.528;44.712;2023-05-21T01:47:50;80223.19;;;6.42;82.37
62680;BME280;68213;40.528;44.712;2023-05-21T01:48:55;80222.50;;;6.41;82.36
62680;BME280;68213;40.528;44.712;2023-05-21T01:49:58;80219.66;;;6.37;82.30
62680;BME280;68213;40.528;44.712;2023-05-21T01:51:02;80221.59;;;6.37;82.03
62680;BME280;68213;40.528;44.712;2023-05-21T01:52:04;80224.06;;;6.34;82.32
62680;BME280;68213;40.528;44.712;2023-05-21T01:53:05;80229.16;;;6.32;82.18
62680;BME280;68213;40.528;44.712;2023-05-21T01:54:06;80224.06;;;6.34;81.63
62680;BME280;68213;40.528;44.712;2023-05-21T01:55:07;80221.69;;;6.39;81.35
62680;BME280;68213;40.528;44.712;2023-05-21T01:56:10;80228.41;;;6.42;81.32
62680;BME280;68213;40.528;44.712;2023-05-21T01:57:10;80226.47;;;6.42;81.40
62680;BME280;68213;40.528;44.712;2023-05-21T01:58:11;80221.97;;;6.43;81.61
62680;BME280;68213;40.528;44.712;2023-05-21T01:59:12;80230.59;;;6.45;81.18
62680;BME280;68213;40.528;44.712;2023-05-21T02:00:13;80228.78;;;6.48;81.21
62680;BME280;68213;40.528;44.712;2023-05-21T02:01:14;80232.31;;;6.53;80.54
62680;BME280;68213;40.528;44.712;2023-05-21T02:02:14;80234.38;;;6.54;80.36
62680;BME280;68213;40.528;44.712;2023-05-21T02:03:16;80238.47;;;6.57;80.47
62680;BME280;68213;40.528;44.712;2023-05-21T02:04:17;80234.75;;;6.60;80.87
62680;BME280;68213;40.528;44.712;2023-05-21T02:05:17;80229.78;;;6.64;80.41
62680;BME280;68213;40.528;44.712;2023-05-21T02:06:18;80230.44;;;6.65;80.28
62680;BME280;68213;40.528;44.712;2023-05-21T02:07:21;80237.84;;;6.69;79.49
62680;BME280;68213;40.528;44.712;2023-05-21T02:08:22;80235.34;;;6.71;79.16
62680;BME280;68213;40.528;44.712;2023-05-21T02:09:23;80221.19;;;6.74;79.36
62680;BME280;68213;40.528;44.712;2023-05-21T02:10:23;80224.03;;;6.78;79.17
62680;BME280;68213;40.528;44.712;2023-05-21T02:11:25;80220.84;;;6.79;79.19
62680;BME280;68213;40.528;44.712;2023-05-21T02:12:26;80223.59;;;6.81;79.61
62680;BME280;68213;40.528;44.712;2023-05-21T02:13:27;80214.94;;;6.79;79.87
62680;BME280;68213;40.528;44.712;2023-05-21T02:14:28;80218.88;;;6.68;80.37
62680;BME280;68213;40.528;44.712;2023-05-21T02:15:29;80205.06;;;6.44;80.24
62680;BME280;68213;40.528;44.712;2023-05-21T02:16:29;80223.44;;;6.46;80.88
62680;BME280;68213;40.528;44.712;2023-05-21T02:17:30;80219.97;;;6.31;81.54
62680;BME280;68213;40.528;44.712;2023-05-21T02:18:33;80218.84;;;6.34;82.27
62680;BME280;68213;40.528;44.712;2023-05-21T02:19:35;80221.31;;;6.32;82.47
62680;BME280;68213;40.528;44.712;2023-05-21T02:20:36;80214.88;;;6.33;82.33
62680;BME280;68213;40.528;44.712;2023-05-21T02:21:36;80213.56;;;6.23;82.24
62680;BME280;68213;40.528;44.712;2023-05-21T02:22:38;80212.19;;;6.22;82.36
62680;BME280;68213;40.528;44.712;2023-05-21T02:23:39;80216.47;;;6.17;82.58
62680;BME280;68213;40.528;44.712;2023-05-21T02:24:42;80206.03;;;6.17;83.68
62680;BME280;68213;40.528;44.712;2023-05-21T02:25:43;80217.28;;;6.19;83.63
62680;BME280;68213;40.528;44.712;2023-05-21T02:26:44;80218.59;;;6.09;83.88
62680;BME280;68213;40.528;44.712;2023-05-21T02:27:44;80219.53;;;6.13;84.33
62680;BME280;68213;40.528;44.712;2023-05-21T02:28:46;80215.38;;;6.20;84.36
62680;BME280;68213;40.528;44.712;2023-05-21T02:29:50;80213.44;;;6.21;84.30
62680;BME280;68213;40.528;44.712;2023-05-21T02:30:51;80219.47;;;6.23;84.41
62680;BME280;68213;40.528;44.712;2023-05-21T02:31:51;80213.38;;;6.30;84.43
62680;BME280;68213;40.528;44.712;2023-05-21T02:32:52;80212.50;;;6.38;84.40
62680;BME280;68213;40.528;44.712;2023-05-21T02:33:53;80210.38;;;6.46;84.13
62680;BME280;68213;40.528;44.712;2023-05-21T02:34:53;80215.94;;;6.40;84.38
62680;BME280;68213;40.528;44.712;2023-05-21T02:35:54;80214.56;;;6.39;84.26
62680;BME280;68213;40.528;44.712;2023-05-21T02:36:55;80219.34;;;6.43;84.77
62680;BME280;68213;40.528;44.712;2023-05-21T02:37:55;80215.28;;;6.51;85.48
62680;BME280;68213;40.528;44.712;2023-05-21T02:38:58;80204.53;;;6.57;85.84
62680;BME280;68213;40.528;44.712;2023-05-21T02:40:02;80211.59;;;6.66;85.89
62680;BME280;68213;40.528;44.712;2023-05-21T02:41:07;80208.22;;;6.76;84.80
62680;BME280;68213;40.528;44.712;2023-05-21T02:42:07;80211.31;;;6.84;83.92
62680;BME280;68213;40.528;44.712;2023-05-21T02:43:08;80197.94;;;6.90;84.53
62680;BME280;68213;40.528;44.712;2023-05-21T02:44:08;80198.97;;;6.96;85.83
62680;BME280;68213;40.528;44.712;2023-05-21T02:45:10;80208.44;;;7.02;86.42
62680;BME280;68213;40.528;44.712;2023-05-21T02:46:11;80206.28;;;7.10;85.75
62680;BME280;68213;40.528;44.712;2023-05-21T02:47:12;80204.25;;;7.20;85.40
62680;BME280;68213;40.528;44.712;2023-05-21T02:48:12;80200.53;;;7.23;85.32
62680;BME280;68213;40.528;44.712;2023-05-21T02:49:13;80201.00;;;7.32;85.82
62680;BME280;68213;40.528;44.712;2023-05-21T02:50:13;80206.69;;;7.40;85.55
62680;BME280;68213;40.528;44.712;2023-05-21T02:51:14;80203.16;;;7.47;84.80
62680;BME280;68213;40.528;44.712;2023-05-21T02:52:16;80199.66;;;7.54;84.63
62680;BME280;68213;40.528;44.712;2023-05-21T02:53:21;80198.75;;;7.61;85.07
62680;BME280;68213;40.528;44.712;2023-05-21T02:54:21;80205.34;;;7.62;85.69
62680;BME280;68213;40.528;44.712;2023-05-21T02:55:22;80201.25;;;7.71;85.88
62680;BME280;68213;40.528;44.712;2023-05-21T02:56:23;80204.31;;;7.68;86.57
62680;BME280;68213;40.528;44.712;2023-05-21T02:57:24;80200.47;;;7.69;86.73
62680;BME280;68213;40.528;44.712;2023-05-21T02:58:24;80202.03;;;7.74;86.54
62680;BME280;68213;40.528;44.712;2023-05-21T02:59:25;80206.16;;;7.77;85.86
62680;BME280;68213;40.528;44.712;2023-05-21T03:00:26;80208.75;;;7.77;85.40
62680;BME280;68213;40.528;44.712;2023-05-21T03:01:26;80204.00;;;7.85;84.41
62680;BME280;68213;40.528;44.712;2023-05-21T03:02:27;80208.31;;;7.92;84.07
62680;BME280;68213;40.528;44.712;2023-05-21T03:03:32;80205.47;;;7.88;83.88
62680;BME280;68213;40.528;44.712;2023-05-21T03:04:32;80209.19;;;7.97;83.97
62680;BME280;68213;40.528;44.712;2023-05-21T03:05:38;80198.31;;;7.89;84.39
62680;BME280;68213;40.528;44.712;2023-05-21T03:06:39;80213.09;;;7.96;84.08
62680;BME280;68213;40.528;44.712;2023-05-21T03:07:40;80204.78;;;8.00;83.52
62680;BME280;68213;40.528;44.712;2023-05-21T03:08:41;80204.66;;;8.09;83.20
62680;BME280;68213;40.528;44.712;2023-05-21T03:09:42;80210.56;;;8.10;83.84
62680;BME280;68213;40.528;44.712;2023-05-21T03:10:43;80207.03;;;8.17;83.18
62680;BME280;68213;40.528;44.712;2023-05-21T03:11:44;80198.38;;;8.26;82.82
62680;BME280;68213;40.528;44.712;2023-05-21T03:12:47;80198.94;;;8.37;81.83
62680;BME280;68213;40.528;44.712;2023-05-21T03:13:47;80192.22;;;8.34;81.49
62680;BME280;68213;40.528;44.712;2023-05-21T03:14:48;80198.47;;;8.52;80.70
62680;BME280;68213;40.528;44.712;2023-05-21T03:15:50;80201.97;;;8.57;80.05
62680;BME280;68213;40.528;44.712;2023-05-21T03:16:55;80192.97;;;8.60;79.94
62680;BME280;68213;40.528;44.712;2023-05-21T03:17:56;80203.09;;;8.66;79.78
62680;BME280;68213;40.528;44.712;2023-05-21T03:18:56;80202.25;;;8.75;78.91
62680;BME280;68213;40.528;44.712;2023-05-21T03:19:57;80197.38;;;8.81;78.08
62680;BME280;68213;40.528;44.712;2023-05-21T03:20:57;80199.06;;;8.88;77.87
62680;BME280;68213;40.528;44.712;2023-05-21T03:21:59;80197.56;;;8.85;82.30
62680;BME280;68213;40.528;44.712;2023-05-21T03:23:01;80197.22;;;8.91;82.02
62680;BME280;68213;40.528;44.712;2023-05-21T03:24:04;80201.28;;;8.94;82.64
62680;BME280;68213;40.528;44.712;2023-05-21T03:25:05;80204.72;;;8.97;80.64
62680;BME280;68213;40.528;44.712;2023-05-21T03:26:06;80197.06;;;9.01;80.59
62680;BME280;68213;40.528;44.712;2023-05-21T03:27:07;80205.03;;;9.03;80.88
62680;BME280;68213;40.528;44.712;2023-05-21T03:28:07;80201.03;;;9.02;80.75
62680;BME280;68213;40.528;44.712;2023-05-21T03:29:11;80198.78;;;8.96;80.91
62680;BME280;68213;40.528;44.712;2023-05-21T03:30:12;80191.94;;;9.03;81.15
62680;BME280;68213;40.528;44.712;2023-05-21T03:31:12;80196.00;;;9.06;81.46
62680;BME280;68213;40.528;44.712;2023-05-21T03:32:14;80193.97;;;9.04;81.36
62680;BME280;68213;40.528;44.712;2023-05-21T03:33:15;80191.94;;;9.03;80.54
62680;BME280;68213;40.528;44.712;2023-05-21T03:34:16;80197.53;;;8.97;79.34
62680;BME280;68213;40.528;44.712;2023-05-21T03:35:19;80207.19;;;9.07;78.63
62680;BME280;68213;40.528;44.712;2023-05-21T03:36:20;80195.44;;;9.08;77.89
62680;BME280;68213;40.528;44.712;2023-05-21T03:37:21;80193.69;;;9.12;77.80
62680;BME280;68213;40.528;44.712;2023-05-21T03:38:21;80187.97;;;9.16;78.57
62680;BME280;68213;40.528;44.712;2023-05-21T03:39:22;80201.97;;;9.20;77.78
62680;BME280;68213;40.528;44.712;2023-05-21T03:40:23;80204.13;;;9.24;77.95
62680;BME280;68213;40.528;44.712;2023-05-21T03:41:24;80205.03;;;9.29;77.56
62680;BME280;68213;40.528;44.712;2023-05-21T03:42:28;80203.78;;;9.30;77.45
62680;BME280;68213;40.528;44.712;2023-05-21T03:43:29;80204.66;;;9.34;78.13
62680;BME280;68213;40.528;44.712;2023-05-21T03:44:29;80210.81;;;9.39;78.50
62680;BME280;68213;40.528;44.712;2023-05-21T03:45:31;80206.34;;;9.42;78.43
62680;BME280;68213;40.528;44.712;2023-05-21T03:46:32;80202.53;;;9.31;77.25
62680;BME280;68213;40.528;44.712;2023-05-21T03:47:33;80216.22;;;9.29;77.08
62680;BME280;68213;40.528;44.712;2023-05-21T03:48:35;80218.22;;;9.05;77.79
62680;BME280;68213;40.528;44.712;2023-05-21T03:49:35;80222.03;;;9.02;78.33
62680;BME280;68213;40.528;44.712;2023-05-21T03:50:36;80222.91;;;9.07;78.15
62680;BME280;68213;40.528;44.712;2023-05-21T03:51:37;80224.03;;;9.15;79.38
62680;BME280;68213;40.528;44.712;2023-05-21T03:52:38;80216.25;;;9.17;78.36
62680;BME280;68213;40.528;44.712;2023-05-21T03:53:39;80220.56;;;9.25;77.55
62680;BME280;68213;40.528;44.712;2023-05-21T03:54:40;80225.13;;;9.24;76.90
62680;BME280;68213;40.528;44.712;2023-05-21T03:55:40;80210.75;;;9.25;76.60
62680;BME280;68213;40.528;44.712;2023-05-21T03:56:41;80215.03;;;9.32;76.82
62680;BME280;68213;40.528;44.712;2023-05-21T03:57:42;80228.28;;;9.34;76.97
62680;BME280;68213;40.528;44.712;2023-05-21T03:58:42;80224.03;;;9.41;77.14
62680;BME280;68213;40.528;44.712;2023-05-21T03:59:43;80204.56;;;9.32;76.19
62680;BME280;68213;40.528;44.712;2023-05-21T04:00:44;80229.13;;;9.51;76.10
62680;BME280;68213;40.528;44.712;2023-05-21T04:01:45;80223.59;;;9.59;76.39
62680;BME280;68213;40.528;44.712;2023-05-21T04:02:46;80221.97;;;9.65;77.35
62680;BME280;68213;40.528;44.712;2023-05-21T04:03:47;80230.63;;;9.68;77.87
62680;BME280;68213;40.528;44.712;2023-05-21T04:04:47;80220.13;;;9.68;77.51
62680;BME280;68213;40.528;44.712;2023-05-21T04:05:50;80229.84;;;9.79;75.99
62680;BME280;68213;40.528;44.712;2023-05-21T04:06:51;80231.63;;;9.89;75.47
62680;BME280;68213;40.528;44.712;2023-05-21T04:07:53;80218.88;;;9.83;75.36
62680;BME280;68213;40.528;44.712;2023-05-21T04:08:56;80227.00;;;10.01;74.87
62680;BME280;68213;40.528;44.712;2023-05-21T04:09:57;80226.91;;;9.99;75.44
62680;BME280;68213;40.528;44.712;2023-05-21T04:10:57;80230.28;;;9.88;74.56
62680;BME280;68213;40.528;44.712;2023-05-21T04:11:58;80227.22;;;9.79;75.44
62680;BME280;68213;40.528;44.712;2023-05-21T04:12:59;80212.44;;;9.72;75.30
62680;BME280;68213;40.528;44.712;2023-05-21T04:14:02;80227.34;;;9.81;74.60
62680;BME280;68213;40.528;44.712;2023-05-21T04:15:03;80206.72;;;9.76;74.96
62680;BME280;68213;40.528;44.712;2023-05-21T04:16:05;80221.25;;;9.91;74.18
62680;BME280;68213;40.528;44.712;2023-05-21T04:17:08;80224.72;;;9.81;73.89
62680;BME280;68213;40.528;44.712;2023-05-21T04:18:09;80226.00;;;9.94;73.51
62680;BME280;68213;40.528;44.712;2023-05-21T04:19:10;80227.69;;;10.02;73.42
62680;BME280;68213;40.528;44.712;2023-05-21T04:20:12;80231.28;;;10.08;73.20
62680;BME280;68213;40.528;44.712;2023-05-21T04:21:18;80232.16;;;10.13;73.03
62680;BME280;68213;40.528;44.712;2023-05-21T04:22:19;80226.53;;;10.19;71.89
62680;BME280;68213;40.528;44.712;2023-05-21T04:23:20;80226.94;;;10.27;72.08
62680;BME280;68213;40.528;44.712;2023-05-21T04:24:23;80225.06;;;10.29;70.84
62680;BME280;68213;40.528;44.712;2023-05-21T04:25:24;80226.28;;;10.40;72.24
62680;BME280;68213;40.528;44.712;2023-05-21T04:26:24;80226.66;;;10.48;69.86
62680;BME280;68213;40.528;44.712;2023-05-21T04:27:25;80221.13;;;10.42;69.85
62680;BME280;68213;40.528;44.712;2023-05-21T04:28:26;80222.41;;;10.55;70.93
62680;BME280;68213;40.528;44.712;2023-05-21T04:29:28;80228.72;;;10.64;69.86
62680;BME280;68213;40.528;44.712;2023-05-21T04:30:30;80226.47;;;10.72;69.49
62680;BME280;68213;40.528;44.712;2023-05-21T04:31:34;80220.06;;;10.75;68.80
62680;BME280;68213;40.528;44.712;2023-05-21T04:32:35;80215.19;;;10.56;68.30
62680;BME280;68213;40.528;44.712;2023-05-21T04:33:36;80215.09;;;10.54;68.75
62680;BME280;68213;40.528;44.712;2023-05-21T04:34:39;80211.41;;;10.59;70.09
62680;BME280;68213;40.528;44.712;2023-05-21T04:35:39;80221.31;;;10.60;70.21
62680;BME280;68213;40.528;44.712;2023-05-21T04:36:44;80221.31;;;10.60;70.15
62680;BME280;68213;40.528;44.712;2023-05-21T04:37:45;80216.94;;;10.65;70.18
62680;BME280;68213;40.528;44.712;2023-05-21T04:38:45;80219.28;;;10.59;71.94
62680;BME280;68213;40.528;44.712;2023-05-21T04:39:47;80222.88;;;10.79;71.57
62680;BME280;68213;40.528;44.712;2023-05-21T04:40:49;80223.53;;;10.80;70.00
62680;BME280;68213;40.528;44.712;2023-05-21T04:41:50;80220.06;;;10.75;69.56
62680;BME280;68213;40.528;44.712;2023-05-21T04:42:56;80226.53;;;10.88;70.31
62680;BME280;68213;40.528;44.712;2023-05-21T04:43:57;80224.56;;;11.03;70.09
62680;BME280;68213;40.528;44.712;2023-05-21T04:44:58;80215.41;;;11.18;69.85
62680;BME280;68213;40.528;44.712;2023-05-21T04:45:58;80223.78;;;11.28;67.94
62680;BME280;68213;40.528;44.712;2023-05-21T04:46:59;80221.47;;;11.36;68.52
62680;BME280;68213;40.528;44.712;2023-05-21T04:48:00;80228.59;;;11.34;69.24
62680;BME280;68213;40.528;44.712;2023-05-21T04:49:01;80217.31;;;11.31;67.75
62680;BME280;68213;40.528;44.712;2023-05-21T04:50:05;80218.94;;;11.38;67.27
62680;BME280;68213;40.528;44.712;2023-05-21T04:51:06;80225.75;;;11.43;66.47
62680;BME280;68213;40.528;44.712;2023-05-21T04:52:06;80220.94;;;11.24;67.33
62680;BME280;68213;40.528;44.712;2023-05-21T04:53:07;80225.16;;;11.15;67.19
62680;BME280;68213;40.528;44.712;2023-05-21T04:54:11;80232.44;;;11.17;67.96
62680;BME280;68213;40.528;44.712;2023-05-21T04:55:11;80233.59;;;11.27;67.32
62680;BME280;68213;40.528;44.712;2023-05-21T04:56:13;80233.38;;;11.37;66.92
62680;BME280;68213;40.528;44.712;2023-05-21T04:57:13;80232.22;;;11.40;66.92
62680;BME280;68213;40.528;44.712;2023-05-21T04:58:14;80235.94;;;11.35;67.13
62680;BME280;68213;40.528;44.712;2023-05-21T04:59:17;80233.69;;;11.30;68.07
62680;BME280;68213;40.528;44.712;2023-05-21T05:00:19;80240.06;;;11.10;68.67
62680;BME280;68213;40.528;44.712;2023-05-21T05:01:21;80238.31;;;11.01;69.21
62680;BME280;68213;40.528;44.712;2023-05-21T05:02:22;80246.13;;;10.99;69.30
62680;BME280;68213;40.528;44.712;2023-05-21T05:03:23;80241.66;;;10.88;70.09
62680;BME280;68213;40.528;44.712;2023-05-21T05:04:24;80243.59;;;10.87;68.85
62680;BME280;68213;40.528;44.712;2023-05-21T05:05:27;80250.81;;;10.59;70.51
62680;BME280;68213;40.528;44.712;2023-05-21T05:06:29;80242.53;;;10.51;70.11
62680;BME280;68213;40.528;44.712;2023-05-21T05:07:30;80248.69;;;10.55;70.24
62680;BME280;68213;40.528;44.712;2023-05-21T05:08:30;80250.94;;;10.61;70.32
62680;BME280;68213;40.528;44.712;2023-05-21T05:09:32;80241.00;;;10.73;70.35
62680;BME280;68213;40.528;44.712;2023-05-21T05:10:34;80241.88;;;10.78;70.51
62680;BME280;68213;40.528;44.712;2023-05-21T05:11:34;80240.59;;;10.79;71.36
62680;BME280;68213;40.528;44.712;2023-05-21T05:13:45;80250.63;;;10.83;70.34
62680;BME280;68213;40.528;44.712;2023-05-21T05:14:49;80243.09;;;10.91;68.41
62680;BME280;68213;40.528;44.712;2023-05-21T05:15:49;80243.91;;;10.93;68.52
62680;BME280;68213;40.528;44.712;2023-05-21T05:16:51;80253.34;;;10.99;68.92
62680;BME280;68213;40.528;44.712;2023-05-21T05:17:53;80247.69;;;11.04;68.80
62680;BME280;68213;40.528;44.712;2023-05-21T05:18:54;80251.69;;;11.05;68.98
62680;BME280;68213;40.528;44.712;2023-05-21T05:19:54;80246.31;;;11.03;67.00
62680;BME280;68213;40.528;44.712;2023-05-21T05:20:55;80250.88;;;11.17;67.27
62680;BME280;68213;40.528;44.712;2023-05-21T05:21:56;80239.56;;;11.28;67.05
62680;BME280;68213;40.528;44.712;2023-05-21T05:22:56;80249.09;;;11.35;67.03
62680;BME280;68213;40.528;44.712;2023-05-21T05:23:57;80240.69;;;11.39;66.73
62680;BME280;68213;40.528;44.712;2023-05-21T05:24:58;80236.97;;;11.44;66.43
62680;BME280;68213;40.528;44.712;2023-05-21T05:25:59;80233.44;;;11.53;65.21
62680;BME280;68213;40.528;44.712;2023-05-21T05:26:59;80235.16;;;11.63;65.26
62680;BME280;68213;40.528;44.712;2023-05-21T05:28:00;80230.84;;;11.69;65.22
62680;BME280;68213;40.528;44.712;2023-05-21T05:29:01;80234.75;;;11.68;65.75
62680;BME280;68213;40.528;44.712;2023-05-21T05:30:01;80234.34;;;11.74;65.66